WMT4ZT LIMC-LATI
Flight info
| Callsign | WMT4ZT |
|---|---|
| Flight time | 1h 23m |
| Altitude | 35000 |
| Route | SRN6LXROBAS6Q/35R ROBAS DCT IPDAB DCT IBENI DCT MOKUN DCT TIBRI DCT PETAK |
| Aircraft | A321/M-SDE1E2E3GIJ1J4RWXY/LB1 |
Departure
| Time | 2026-05-01 10:23 |
|---|---|
| Airport | Milan Malpensa International Airport (LIMC) |
Arrival
| Time | 2026-05-01 11:46 |
|---|---|
| Airport | Tirana International Airport Mother Teresa (LATI) |
| Time | Latitude | Longitude | Altitude | Speed | Heading |
|---|---|---|---|---|---|
| 2026-05-01 09:46 | 45.62883 | 8.71871 | 737 ft | 0 kts | 79° |
| 2026-05-01 09:58 | 45.62769 | 8.71900 | 736 ft | 0 kts | 79° |
| 2026-05-01 10:12 | 45.62769 | 8.71901 | 736 ft | 0 kts | 79° |
| 2026-05-01 10:13 | 45.62770 | 8.71910 | 734 ft | 2 kts | 79° |
| 2026-05-01 10:13 | 45.62776 | 8.71949 | 736 ft | 5 kts | 79° |
| 2026-05-01 10:13 | 45.62759 | 8.71997 | 736 ft | 7 kts | 151° |
| 2026-05-01 10:14 | 45.62678 | 8.72102 | 737 ft | 9 kts | 111° |
| 2026-05-01 10:14 | 45.62612 | 8.72152 | 737 ft | 13 kts | 168° |
| 2026-05-01 10:14 | 45.62509 | 8.72181 | 737 ft | 18 kts | 169° |
| 2026-05-01 10:14 | 45.62371 | 8.72219 | 736 ft | 22 kts | 169° |
| 2026-05-01 10:15 | 45.62211 | 8.72263 | 737 ft | 24 kts | 169° |
| 2026-05-01 10:15 | 45.62049 | 8.72308 | 737 ft | 24 kts | 169° |
| 2026-05-01 10:15 | 45.61888 | 8.72352 | 738 ft | 24 kts | 169° |
| 2026-05-01 10:15 | 45.61728 | 8.72397 | 738 ft | 24 kts | 169° |
| 2026-05-01 10:16 | 45.61566 | 8.72441 | 736 ft | 24 kts | 169° |
| 2026-05-01 10:16 | 45.61433 | 8.72477 | 737 ft | 19 kts | 169° |
| 2026-05-01 10:16 | 45.61207 | 8.72540 | 737 ft | 13 kts | 169° |
| 2026-05-01 10:17 | 45.61123 | 8.72563 | 736 ft | 10 kts | 169° |
| 2026-05-01 10:17 | 45.61083 | 8.72599 | 737 ft | 0 kts | 119° |
| 2026-05-01 10:19 | 45.61080 | 8.72608 | 737 ft | 4 kts | 114° |
| 2026-05-01 10:19 | 45.61083 | 8.72701 | 738 ft | 14 kts | 80° |
| 2026-05-01 10:19 | 45.61107 | 8.72883 | 740 ft | 22 kts | 79° |
| 2026-05-01 10:20 | 45.61270 | 8.73181 | 737 ft | 20 kts | 34° |
| 2026-05-01 10:20 | 45.61394 | 8.73267 | 737 ft | 20 kts | 356° |
| 2026-05-01 10:20 | 45.61534 | 8.73230 | 737 ft | 21 kts | 349° |
| 2026-05-01 10:20 | 45.61613 | 8.73261 | 737 ft | 12 kts | 70° |
| 2026-05-01 10:21 | 45.61630 | 8.73376 | 737 ft | 13 kts | 79° |
| 2026-05-01 10:21 | 45.61586 | 8.73620 | 737 ft | 14 kts | 85° |
| 2026-05-01 10:21 | 45.61625 | 8.73728 | 737 ft | 10 kts | 24° |
| 2026-05-01 10:22 | 45.62024 | 8.73625 | 737 ft | 84 kts | 349° |
| 2026-05-01 10:22 | 45.63983 | 8.73089 | 939 ft | 178 kts | 352° |
| 2026-05-01 10:23 | 45.65181 | 8.72772 | 1815 ft | 174 kts | 351° |
| 2026-05-01 10:23 | 45.67805 | 8.72668 | 2689 ft | 210 kts | 1° |
| 2026-05-01 10:23 | 45.69347 | 8.72674 | 3123 ft | 230 kts | 1° |
| 2026-05-01 10:24 | 45.72406 | 8.73462 | 4414 ft | 231 kts | 42° |
| 2026-05-01 10:24 | 45.73696 | 8.77671 | 5470 ft | 255 kts | 92° |
| 2026-05-01 10:25 | 45.71942 | 8.82206 | 6757 ft | 274 kts | 130° |
| 2026-05-01 10:25 | 45.69479 | 8.86470 | 8235 ft | 281 kts | 128° |
| 2026-05-01 10:26 | 45.68244 | 8.88646 | 8992 ft | 284 kts | 127° |
| 2026-05-01 10:26 | 45.66995 | 8.90841 | 9750 ft | 286 kts | 127° |
| 2026-05-01 10:26 | 45.64423 | 8.95347 | 10794 ft | 308 kts | 128° |
| 2026-05-01 10:27 | 45.61526 | 9.00408 | 11333 ft | 343 kts | 128° |
| 2026-05-01 10:27 | 45.58598 | 9.05880 | 12548 ft | 349 kts | 115° |
| 2026-05-01 10:28 | 45.57520 | 9.09002 | 13178 ft | 353 kts | 114° |
| 2026-05-01 10:28 | 45.55387 | 9.15332 | 14401 ft | 360 kts | 113° |
| 2026-05-01 10:28 | 45.54302 | 9.18561 | 14987 ft | 363 kts | 113° |
| 2026-05-01 10:29 | 45.52094 | 9.25090 | 16192 ft | 368 kts | 113° |
| 2026-05-01 10:29 | 45.50973 | 9.28384 | 16799 ft | 371 kts | 113° |
| 2026-05-01 10:30 | 45.48704 | 9.35036 | 18022 ft | 376 kts | 113° |
| 2026-05-01 10:30 | 45.46397 | 9.41784 | 19130 ft | 382 kts | 113° |
| 2026-05-01 10:31 | 45.44439 | 9.47520 | 19818 ft | 387 kts | 113° |
| 2026-05-01 10:31 | 45.42062 | 9.54472 | 20825 ft | 394 kts | 113° |
| 2026-05-01 10:32 | 45.39636 | 9.61543 | 21832 ft | 401 kts | 113° |
| 2026-05-01 10:32 | 45.38418 | 9.65077 | 22322 ft | 404 kts | 113° |
| 2026-05-01 10:32 | 45.35913 | 9.72310 | 23267 ft | 411 kts | 112° |
| 2026-05-01 10:33 | 45.33364 | 9.79656 | 24123 ft | 418 kts | 112° |
| 2026-05-01 10:33 | 45.30779 | 9.87112 | 24890 ft | 423 kts | 112° |
| 2026-05-01 10:34 | 45.29474 | 9.90871 | 25271 ft | 426 kts | 112° |
| 2026-05-01 10:34 | 45.28157 | 9.94650 | 25623 ft | 429 kts | 113° |
| 2026-05-01 10:34 | 45.26829 | 9.98454 | 25982 ft | 431 kts | 112° |
| 2026-05-01 10:35 | 45.24142 | 10.06117 | 26699 ft | 436 kts | 113° |
| 2026-05-01 10:35 | 45.22784 | 10.09983 | 27035 ft | 439 kts | 112° |
| 2026-05-01 10:35 | 45.21421 | 10.13873 | 27379 ft | 442 kts | 112° |
| 2026-05-01 10:35 | 45.20049 | 10.17783 | 27723 ft | 444 kts | 113° |
| 2026-05-01 10:36 | 45.17275 | 10.25668 | 28373 ft | 450 kts | 113° |
| 2026-05-01 10:36 | 45.15872 | 10.29639 | 28707 ft | 453 kts | 113° |
| 2026-05-01 10:36 | 45.14453 | 10.33640 | 29016 ft | 455 kts | 113° |
| 2026-05-01 10:37 | 45.13027 | 10.37657 | 29326 ft | 458 kts | 113° |
| 2026-05-01 10:37 | 45.10154 | 10.45755 | 29907 ft | 463 kts | 113° |
| 2026-05-01 10:37 | 45.08704 | 10.49844 | 30209 ft | 466 kts | 113° |
| 2026-05-01 10:38 | 45.07245 | 10.53957 | 30493 ft | 469 kts | 113° |
| 2026-05-01 10:38 | 45.05776 | 10.58082 | 30745 ft | 471 kts | 113° |
| 2026-05-01 10:38 | 45.04295 | 10.62229 | 31019 ft | 473 kts | 113° |
| 2026-05-01 10:38 | 45.02813 | 10.66377 | 31387 ft | 472 kts | 113° |
| 2026-05-01 10:39 | 45.01330 | 10.70516 | 31751 ft | 472 kts | 113° |
| 2026-05-01 10:39 | 44.99842 | 10.74648 | 32108 ft | 472 kts | 114° |
| 2026-05-01 10:39 | 44.98354 | 10.78774 | 32457 ft | 471 kts | 114° |
| 2026-05-01 10:39 | 44.96866 | 10.82894 | 32807 ft | 471 kts | 114° |
| 2026-05-01 10:40 | 44.95406 | 10.87034 | 33150 ft | 470 kts | 111° |
| 2026-05-01 10:40 | 44.94077 | 10.91237 | 33475 ft | 469 kts | 109° |
| 2026-05-01 10:40 | 44.92866 | 10.95443 | 33791 ft | 468 kts | 108° |
| 2026-05-01 10:40 | 44.91695 | 10.99722 | 34119 ft | 468 kts | 107° |
| 2026-05-01 10:41 | 44.90532 | 11.04006 | 34424 ft | 468 kts | 108° |
| 2026-05-01 10:41 | 44.89347 | 11.08284 | 34675 ft | 469 kts | 108° |
| 2026-05-01 10:41 | 44.86885 | 11.16807 | 35164 ft | 470 kts | 109° |
| 2026-05-01 10:42 | 44.85621 | 11.21063 | 35333 ft | 471 kts | 109° |
| 2026-05-01 10:42 | 44.83109 | 11.29476 | 35380 ft | 469 kts | 110° |
| 2026-05-01 10:43 | 44.80591 | 11.37943 | 35384 ft | 469 kts | 109° |
| 2026-05-01 10:43 | 44.78086 | 11.46420 | 35386 ft | 469 kts | 109° |
| 2026-05-01 10:44 | 44.75577 | 11.54891 | 35386 ft | 469 kts | 110° |
| 2026-05-01 10:44 | 44.73041 | 11.63366 | 35384 ft | 470 kts | 110° |
| 2026-05-01 10:45 | 44.70492 | 11.71845 | 35386 ft | 471 kts | 110° |
| 2026-05-01 10:45 | 44.67940 | 11.80329 | 35393 ft | 472 kts | 110° |
| 2026-05-01 10:46 | 44.65376 | 11.88820 | 35399 ft | 473 kts | 110° |
| 2026-05-01 10:46 | 44.62801 | 11.97321 | 35400 ft | 473 kts | 110° |
| 2026-05-01 10:47 | 44.60216 | 12.05830 | 35413 ft | 474 kts | 110° |
| 2026-05-01 10:47 | 44.57616 | 12.14345 | 35407 ft | 475 kts | 110° |
| 2026-05-01 10:48 | 44.55041 | 12.22755 | 35419 ft | 476 kts | 110° |
| 2026-05-01 10:48 | 44.52419 | 12.31298 | 35417 ft | 477 kts | 111° |
| 2026-05-01 10:49 | 44.49797 | 12.39843 | 35414 ft | 478 kts | 111° |
| 2026-05-01 10:49 | 44.47160 | 12.48386 | 35413 ft | 478 kts | 111° |
| 2026-05-01 10:50 | 44.44509 | 12.56933 | 35417 ft | 479 kts | 111° |
| 2026-05-01 10:50 | 44.41852 | 12.65482 | 35411 ft | 480 kts | 111° |
| 2026-05-01 10:51 | 44.39187 | 12.74037 | 35405 ft | 480 kts | 111° |
| 2026-05-01 10:51 | 44.36509 | 12.82601 | 35400 ft | 481 kts | 111° |
| 2026-05-01 10:52 | 44.33817 | 12.91167 | 35395 ft | 482 kts | 112° |
| 2026-05-01 10:52 | 44.31109 | 12.99737 | 35386 ft | 483 kts | 112° |
| 2026-05-01 10:53 | 44.28397 | 13.08315 | 35389 ft | 484 kts | 112° |
| 2026-05-01 10:53 | 44.25672 | 13.16903 | 35387 ft | 484 kts | 112° |
| 2026-05-01 10:54 | 44.22938 | 13.25494 | 35386 ft | 485 kts | 112° |
| 2026-05-01 10:54 | 44.20198 | 13.34096 | 35381 ft | 486 kts | 112° |
| 2026-05-01 10:55 | 44.17449 | 13.42700 | 35381 ft | 486 kts | 112° |
| 2026-05-01 10:55 | 44.14684 | 13.51313 | 35376 ft | 487 kts | 112° |
| 2026-05-01 10:56 | 44.11923 | 13.59868 | 35370 ft | 488 kts | 113° |
| 2026-05-01 10:56 | 44.09138 | 13.68468 | 35364 ft | 489 kts | 113° |
| 2026-05-01 10:57 | 44.06322 | 13.77120 | 35363 ft | 490 kts | 113° |
| 2026-05-01 10:57 | 44.03512 | 13.85761 | 35359 ft | 491 kts | 113° |
| 2026-05-01 10:58 | 44.00691 | 13.94414 | 35360 ft | 492 kts | 113° |
| 2026-05-01 10:58 | 43.97931 | 14.03111 | 35357 ft | 493 kts | 112° |
| 2026-05-01 10:59 | 43.95203 | 14.11838 | 35357 ft | 493 kts | 112° |
| 2026-05-01 10:59 | 43.92451 | 14.20569 | 35351 ft | 494 kts | 113° |
| 2026-05-01 11:00 | 43.89665 | 14.29281 | 35347 ft | 494 kts | 114° |
| 2026-05-01 11:00 | 43.86858 | 14.38002 | 35344 ft | 497 kts | 113° |
| 2026-05-01 11:01 | 43.84060 | 14.46741 | 35353 ft | 496 kts | 113° |
| 2026-05-01 11:01 | 43.81254 | 14.55474 | 35342 ft | 496 kts | 113° |
| 2026-05-01 11:02 | 43.78428 | 14.64195 | 35341 ft | 496 kts | 113° |
| 2026-05-01 11:02 | 43.75597 | 14.72897 | 35341 ft | 496 kts | 113° |
| 2026-05-01 11:03 | 43.72768 | 14.81603 | 35337 ft | 496 kts | 113° |
| 2026-05-01 11:03 | 43.69941 | 14.90298 | 35336 ft | 496 kts | 113° |
| 2026-05-01 11:04 | 43.67110 | 14.98984 | 35330 ft | 496 kts | 113° |
| 2026-05-01 11:04 | 43.64265 | 15.07664 | 35328 ft | 496 kts | 114° |
| 2026-05-01 11:05 | 43.61408 | 15.16331 | 35321 ft | 496 kts | 114° |
| 2026-05-01 11:05 | 43.58545 | 15.24984 | 35315 ft | 496 kts | 114° |
| 2026-05-01 11:06 | 43.55677 | 15.33629 | 35311 ft | 496 kts | 114° |
| 2026-05-01 11:06 | 43.52798 | 15.42264 | 35315 ft | 496 kts | 114° |
| 2026-05-01 11:07 | 43.48473 | 15.55204 | 35311 ft | 496 kts | 114° |
| 2026-05-01 11:07 | 43.45588 | 15.63822 | 35306 ft | 495 kts | 114° |
| 2026-05-01 11:08 | 43.42717 | 15.72369 | 35304 ft | 495 kts | 114° |
| 2026-05-01 11:09 | 43.38372 | 15.85259 | 35296 ft | 495 kts | 114° |
| 2026-05-01 11:09 | 43.35461 | 15.93828 | 35287 ft | 495 kts | 115° |
| 2026-05-01 11:10 | 43.31077 | 16.06672 | 35285 ft | 495 kts | 115° |
| 2026-05-01 11:10 | 43.28155 | 16.15223 | 35279 ft | 495 kts | 115° |
| 2026-05-01 11:11 | 43.25230 | 16.23769 | 35280 ft | 495 kts | 115° |
| 2026-05-01 11:11 | 43.22295 | 16.32301 | 35275 ft | 495 kts | 115° |
| 2026-05-01 11:12 | 43.19351 | 16.40827 | 35269 ft | 495 kts | 115° |
| 2026-05-01 11:12 | 43.16404 | 16.49337 | 35273 ft | 494 kts | 115° |
| 2026-05-01 11:13 | 43.13457 | 16.57845 | 35268 ft | 494 kts | 115° |
| 2026-05-01 11:13 | 43.10502 | 16.66346 | 35261 ft | 495 kts | 115° |
| 2026-05-01 11:14 | 43.07536 | 16.74840 | 35262 ft | 495 kts | 116° |
| 2026-05-01 11:14 | 43.04562 | 16.83334 | 35259 ft | 495 kts | 116° |
| 2026-05-01 11:15 | 43.01582 | 16.91829 | 35260 ft | 496 kts | 116° |
| 2026-05-01 11:15 | 42.98584 | 17.00315 | 35261 ft | 496 kts | 116° |
| 2026-05-01 11:16 | 42.95573 | 17.08791 | 35261 ft | 496 kts | 116° |
| 2026-05-01 11:16 | 42.93077 | 17.15844 | 35253 ft | 496 kts | 116° |
| 2026-05-01 11:17 | 42.90068 | 17.24322 | 35253 ft | 496 kts | 116° |
| 2026-05-01 11:17 | 42.86559 | 17.34158 | 35244 ft | 497 kts | 116° |
| 2026-05-01 11:18 | 42.84018 | 17.41250 | 35243 ft | 497 kts | 116° |
| 2026-05-01 11:18 | 42.80980 | 17.49711 | 35235 ft | 497 kts | 116° |
| 2026-05-01 11:19 | 42.77938 | 17.58173 | 35235 ft | 498 kts | 116° |
| 2026-05-01 11:19 | 42.74892 | 17.66632 | 35226 ft | 497 kts | 116° |
| 2026-05-01 11:20 | 42.71841 | 17.75071 | 35222 ft | 497 kts | 117° |
| 2026-05-01 11:20 | 42.68775 | 17.83496 | 35216 ft | 497 kts | 117° |
| 2026-05-01 11:21 | 42.65701 | 17.91913 | 35212 ft | 497 kts | 117° |
| 2026-05-01 11:21 | 42.62653 | 18.00263 | 35205 ft | 497 kts | 117° |
| 2026-05-01 11:22 | 42.59578 | 18.08668 | 35207 ft | 497 kts | 117° |
| 2026-05-01 11:22 | 42.58034 | 18.12866 | 35085 ft | 498 kts | 117° |
| 2026-05-01 11:22 | 42.56490 | 18.17057 | 34840 ft | 495 kts | 117° |
| 2026-05-01 11:23 | 42.54952 | 18.21227 | 34607 ft | 494 kts | 117° |
| 2026-05-01 11:23 | 42.53417 | 18.25387 | 34381 ft | 492 kts | 117° |
| 2026-05-01 11:23 | 42.51888 | 18.29530 | 34104 ft | 490 kts | 117° |
| 2026-05-01 11:23 | 42.50366 | 18.33651 | 33512 ft | 489 kts | 117° |
| 2026-05-01 11:24 | 42.48844 | 18.37756 | 32984 ft | 487 kts | 118° |
| 2026-05-01 11:24 | 42.47323 | 18.41844 | 32430 ft | 485 kts | 118° |
| 2026-05-01 11:24 | 42.44067 | 18.49666 | 32035 ft | 469 kts | 128° |
| 2026-05-01 11:25 | 42.41795 | 18.52838 | 31656 ft | 473 kts | 136° |
| 2026-05-01 11:25 | 42.36981 | 18.58885 | 30436 ft | 470 kts | 136° |
| 2026-05-01 11:25 | 42.34571 | 18.61857 | 29735 ft | 468 kts | 136° |
| 2026-05-01 11:26 | 42.32166 | 18.64809 | 29016 ft | 466 kts | 136° |
| 2026-05-01 11:26 | 42.27391 | 18.70662 | 27651 ft | 461 kts | 136° |
| 2026-05-01 11:26 | 42.25027 | 18.73563 | 26984 ft | 457 kts | 136° |
| 2026-05-01 11:27 | 42.22683 | 18.76445 | 26333 ft | 454 kts | 136° |
| 2026-05-01 11:27 | 42.20362 | 18.79302 | 25699 ft | 450 kts | 136° |
| 2026-05-01 11:27 | 42.18058 | 18.82133 | 25077 ft | 447 kts | 137° |
| 2026-05-01 11:27 | 42.15766 | 18.84941 | 24467 ft | 443 kts | 137° |
| 2026-05-01 11:28 | 42.13495 | 18.87722 | 23868 ft | 439 kts | 137° |
| 2026-05-01 11:28 | 42.11242 | 18.90479 | 23187 ft | 436 kts | 137° |
| 2026-05-01 11:28 | 42.09009 | 18.93207 | 22501 ft | 432 kts | 137° |
| 2026-05-01 11:29 | 42.04590 | 18.98590 | 21162 ft | 425 kts | 137° |
| 2026-05-01 11:29 | 42.02393 | 19.01269 | 20432 ft | 428 kts | 136° |
| 2026-05-01 11:29 | 41.98137 | 19.06805 | 19000 ft | 424 kts | 133° |
| 2026-05-01 11:30 | 41.95889 | 19.09347 | 18365 ft | 422 kts | 147° |
| 2026-05-01 11:30 | 41.93294 | 19.11161 | 17760 ft | 419 kts | 153° |
| 2026-05-01 11:30 | 41.90690 | 19.12859 | 17172 ft | 415 kts | 153° |
| 2026-05-01 11:30 | 41.88100 | 19.14535 | 16586 ft | 411 kts | 153° |
| 2026-05-01 11:31 | 41.85532 | 19.16187 | 16023 ft | 408 kts | 153° |
| 2026-05-01 11:31 | 41.82980 | 19.17824 | 15462 ft | 404 kts | 153° |
| 2026-05-01 11:31 | 41.80455 | 19.19444 | 14949 ft | 400 kts | 153° |
| 2026-05-01 11:31 | 41.77984 | 19.21030 | 14437 ft | 387 kts | 152° |
| 2026-05-01 11:32 | 41.75606 | 19.22559 | 13950 ft | 374 kts | 153° |
| 2026-05-01 11:32 | 41.73276 | 19.24058 | 13412 ft | 370 kts | 152° |
| 2026-05-01 11:32 | 41.70968 | 19.25543 | 12876 ft | 367 kts | 152° |
| 2026-05-01 11:32 | 41.68680 | 19.27016 | 12346 ft | 363 kts | 152° |
| 2026-05-01 11:33 | 41.66440 | 19.28456 | 11834 ft | 361 kts | 153° |
| 2026-05-01 11:33 | 41.64211 | 19.29885 | 11323 ft | 349 kts | 152° |
| 2026-05-01 11:33 | 41.62067 | 19.31254 | 10906 ft | 334 kts | 152° |
| 2026-05-01 11:33 | 41.60018 | 19.32559 | 10537 ft | 319 kts | 151° |
| 2026-05-01 11:34 | 41.58048 | 19.33815 | 10164 ft | 309 kts | 151° |
| 2026-05-01 11:34 | 41.56128 | 19.35044 | 9767 ft | 302 kts | 151° |
| 2026-05-01 11:34 | 41.54265 | 19.36239 | 9390 ft | 295 kts | 152° |
| 2026-05-01 11:34 | 41.52434 | 19.37411 | 9118 ft | 289 kts | 151° |
| 2026-05-01 11:35 | 41.50632 | 19.38564 | 8854 ft | 286 kts | 151° |
| 2026-05-01 11:35 | 41.48848 | 19.39705 | 8587 ft | 283 kts | 152° |
| 2026-05-01 11:35 | 41.47077 | 19.40833 | 8325 ft | 281 kts | 151° |
| 2026-05-01 11:35 | 41.45315 | 19.41954 | 8077 ft | 280 kts | 151° |
| 2026-05-01 11:36 | 41.43567 | 19.43068 | 7812 ft | 278 kts | 151° |
| 2026-05-01 11:36 | 41.41830 | 19.44173 | 7553 ft | 276 kts | 151° |
| 2026-05-01 11:36 | 41.40101 | 19.45272 | 7295 ft | 274 kts | 152° |
| 2026-05-01 11:36 | 41.38383 | 19.46364 | 7090 ft | 273 kts | 152° |
| 2026-05-01 11:37 | 41.36671 | 19.47454 | 6895 ft | 272 kts | 151° |
| 2026-05-01 11:37 | 41.34965 | 19.48538 | 6692 ft | 271 kts | 151° |
| 2026-05-01 11:37 | 41.33265 | 19.49616 | 6494 ft | 270 kts | 152° |
| 2026-05-01 11:37 | 41.31572 | 19.50686 | 6283 ft | 269 kts | 152° |
| 2026-05-01 11:38 | 41.29906 | 19.51739 | 6073 ft | 268 kts | 152° |
| 2026-05-01 11:38 | 41.28223 | 19.52802 | 5861 ft | 267 kts | 152° |
| 2026-05-01 11:38 | 41.26544 | 19.53864 | 5658 ft | 267 kts | 152° |
| 2026-05-01 11:38 | 41.24863 | 19.54926 | 5462 ft | 268 kts | 152° |
| 2026-05-01 11:39 | 41.23181 | 19.55985 | 5302 ft | 268 kts | 152° |
| 2026-05-01 11:39 | 41.21500 | 19.57046 | 5144 ft | 268 kts | 152° |
| 2026-05-01 11:39 | 41.19854 | 19.58176 | 4991 ft | 265 kts | 142° |
| 2026-05-01 11:39 | 41.18558 | 19.59842 | 4828 ft | 256 kts | 122° |
| 2026-05-01 11:40 | 41.17794 | 19.61908 | 4668 ft | 245 kts | 103° |
| 2026-05-01 11:40 | 41.17575 | 19.64100 | 4514 ft | 237 kts | 86° |
| 2026-05-01 11:40 | 41.17729 | 19.66240 | 4348 ft | 232 kts | 83° |
| 2026-05-01 11:40 | 41.17892 | 19.68341 | 4194 ft | 225 kts | 83° |
| 2026-05-01 11:41 | 41.18046 | 19.70369 | 4093 ft | 215 kts | 84° |
| 2026-05-01 11:41 | 41.18235 | 19.72303 | 3890 ft | 210 kts | 74° |
| 2026-05-01 11:41 | 41.18980 | 19.73920 | 3640 ft | 207 kts | 42° |
| 2026-05-01 11:41 | 41.20261 | 19.74749 | 3411 ft | 209 kts | 12° |
| 2026-05-01 11:42 | 41.21711 | 19.74679 | 3220 ft | 206 kts | 359° |
| 2026-05-01 11:42 | 41.23097 | 19.74488 | 2987 ft | 198 kts | 358° |
| 2026-05-01 11:42 | 41.24438 | 19.74306 | 2770 ft | 190 kts | 355° |
| 2026-05-01 11:42 | 41.25685 | 19.74136 | 2624 ft | 174 kts | 358° |
| 2026-05-01 11:43 | 41.26856 | 19.73979 | 2487 ft | 167 kts | 357° |
| 2026-05-01 11:43 | 41.28027 | 19.73825 | 2377 ft | 170 kts | 359° |
| 2026-05-01 11:43 | 41.29200 | 19.73673 | 2252 ft | 169 kts | 357° |
| 2026-05-01 11:44 | 41.31501 | 19.73370 | 2055 ft | 162 kts | 358° |
| 2026-05-01 11:44 | 41.32624 | 19.73222 | 1990 ft | 164 kts | 357° |
| 2026-05-01 11:44 | 41.33799 | 19.73068 | 1633 ft | 171 kts | 357° |
| 2026-05-01 11:44 | 41.34944 | 19.72914 | 1374 ft | 161 kts | 358° |
| 2026-05-01 11:45 | 41.36032 | 19.72768 | 1137 ft | 151 kts | 356° |
| 2026-05-01 11:45 | 41.37027 | 19.72634 | 895 ft | 142 kts | 357° |
| 2026-05-01 11:45 | 41.38005 | 19.72508 | 675 ft | 139 kts | 358° |
| 2026-05-01 11:45 | 41.38966 | 19.72385 | 468 ft | 138 kts | 359° |
| 2026-05-01 11:46 | 41.39927 | 19.72255 | 249 ft | 138 kts | 360° |
| 2026-05-01 11:46 | 41.40866 | 19.72130 | 135 ft | 126 kts | 359° |
| 2026-05-01 11:46 | 41.41500 | 19.72053 | 126 ft | 49 kts | 354° |
| 2026-05-01 11:46 | 41.41775 | 19.72018 | 123 ft | 24 kts | 354° |
| 2026-05-01 11:47 | 41.41874 | 19.71993 | 122 ft | 7 kts | 317° |
| 2026-05-01 11:47 | 41.41878 | 19.71921 | 124 ft | 9 kts | 264° |
| 2026-05-01 11:47 | 41.41871 | 19.71833 | 124 ft | 10 kts | 264° |
| 2026-05-01 11:47 | 41.41863 | 19.71730 | 124 ft | 11 kts | 264° |
| 2026-05-01 11:48 | 41.41856 | 19.71644 | 124 ft | 10 kts | 265° |
| 2026-05-01 11:48 | 41.41903 | 19.71588 | 120 ft | 11 kts | 349° |
| 2026-05-01 11:48 | 41.41961 | 19.71578 | 121 ft | 0 kts | 354° |
| 2026-05-01 11:48 | 41.41962 | 19.71578 | 121 ft | 1 kts | 354° |
| 2026-05-01 11:49 | 41.41978 | 19.71576 | 122 ft | 4 kts | 354° |
| 2026-05-01 11:49 | 41.41991 | 19.71555 | 122 ft | 3 kts | 278° |
| 2026-05-01 11:49 | 41.41989 | 19.71525 | 118 ft | 3 kts | 264° |
| 2026-05-01 11:49 | 41.41988 | 19.71513 | 118 ft | 0 kts | 264° |